createdAt,value
2023-01-07T00:01:55.455Z,-4.54
2023-01-07T00:04:42.521Z,-4.53
2023-01-07T00:07:29.489Z,-4.53
2023-01-07T00:10:16.495Z,-4.51
2023-01-07T00:13:03.461Z,-4.62
2023-01-07T00:15:50.402Z,-4.49
2023-01-07T00:18:37.332Z,-4.48
2023-01-07T00:21:26.756Z,-4.49
2023-01-07T00:24:22.081Z,-4.47
2023-01-07T00:27:09.072Z,-4.45
2023-01-07T00:29:56.115Z,-4.45
2023-01-07T00:32:43.360Z,-4.43
2023-01-07T00:35:30.371Z,-4.44
2023-01-07T00:38:17.638Z,-4.46
2023-01-07T00:41:04.654Z,-4.41
2023-01-07T00:43:52.652Z,-4.41
2023-01-07T00:46:39.615Z,-4.40
2023-01-07T00:49:26.582Z,-4.47
2023-01-07T00:52:13.607Z,-4.38
2023-01-07T00:55:00.757Z,-4.41
2023-01-07T00:57:47.994Z,-4.37
2023-01-07T01:00:37.323Z,-4.36
2023-01-07T01:03:24.958Z,-4.39
2023-01-07T01:06:12.287Z,-4.35
2023-01-07T01:09:02.095Z,-4.71
2023-01-07T01:11:49.037Z,-4.35
2023-01-07T01:14:15.904Z,-4.34
2023-01-07T01:16:45.529Z,-4.33
2023-01-07T01:19:12.453Z,-4.33
2023-01-07T01:21:41.098Z,-4.32
2023-01-07T01:24:08.112Z,-4.31
2023-01-07T01:26:35.047Z,-4.29
2023-01-07T01:29:02.149Z,-4.30
2023-01-07T01:31:31.801Z,-4.43
2023-01-07T01:33:59.919Z,-4.25
2023-01-07T01:36:27.094Z,-4.56
2023-01-07T01:38:57.515Z,-4.24
2023-01-07T01:41:26.536Z,-4.22
2023-01-07T01:43:55.592Z,-4.21
2023-01-07T01:46:45.948Z,-4.54
2023-01-07T01:49:22.181Z,-4.19
2023-01-07T01:52:12.965Z,-4.32
2023-01-07T01:54:43.340Z,-4.16
2023-01-07T01:57:10.546Z,-4.16
2023-01-07T01:59:42.289Z,-4.15
2023-01-07T02:02:11.941Z,-4.51
2023-01-07T02:04:39.226Z,-4.13
2023-01-07T02:07:11.878Z,-4.13
2023-01-07T02:09:43.407Z,-4.34
2023-01-07T02:12:42.112Z,-4.11
2023-01-07T02:15:14.444Z,-4.10
2023-01-07T02:17:55.174Z,-4.09
2023-01-07T02:20:22.228Z,-4.08
2023-01-07T02:23:07.872Z,-4.06
2023-01-07T02:25:43.696Z,-4.06
2023-01-07T02:28:49.916Z,-4.04
2023-01-07T02:31:43.197Z,-4.04
2023-01-07T02:34:32.437Z,-4.03
2023-01-07T02:37:20.105Z,-4.00
2023-01-07T02:40:10.836Z,-4.22
2023-01-07T02:42:46.891Z,-3.99
2023-01-07T02:45:26.623Z,-3.99
2023-01-07T02:47:57.995Z,-3.98
2023-01-07T02:50:24.950Z,-3.95
2023-01-07T02:52:51.974Z,-3.96
2023-01-07T02:55:31.259Z,-4.21
2023-01-07T02:58:33.077Z,-3.93
2023-01-07T03:01:25.088Z,-3.92
2023-01-07T03:04:14.483Z,-3.98
2023-01-07T03:07:10.789Z,-3.89
2023-01-07T03:10:15.160Z,-3.88
2023-01-07T03:13:07.242Z,-3.87
2023-01-07T03:15:41.590Z,-3.88
2023-01-07T03:18:19.096Z,-3.85
2023-01-07T03:21:09.857Z,-3.85
2023-01-07T03:24:02.566Z,-3.86
2023-01-07T03:26:54.073Z,-3.83
2023-01-07T03:29:42.399Z,-3.81
2023-01-07T03:33:08.317Z,-4.04
2023-01-07T03:35:59.044Z,-4.01
2023-01-07T03:38:47.790Z,-3.77
2023-01-07T03:41:35.152Z,-3.84
2023-01-07T03:44:22.776Z,-3.79
2023-01-07T03:47:10.834Z,-3.75
2023-01-07T03:49:57.886Z,-3.94
2023-01-07T03:52:45.093Z,-3.78
2023-01-07T03:55:32.376Z,-3.74
2023-01-07T03:58:19.876Z,-3.73
2023-01-07T04:01:06.909Z,-3.74
2023-01-07T04:03:54.421Z,-3.72
2023-01-07T04:06:42.197Z,-3.76
2023-01-07T04:09:31.189Z,-3.70
2023-01-07T04:12:18.224Z,-3.69
2023-01-07T04:15:05.726Z,-3.69
2023-01-07T04:17:53.088Z,-3.80
2023-01-07T04:20:40.021Z,-3.68
2023-01-07T04:23:26.893Z,-3.68
2023-01-07T04:26:15.329Z,-3.81
2023-01-07T04:29:03.184Z,-3.66
2023-01-07T04:31:50.427Z,-3.67
2023-01-07T04:34:37.648Z,-3.67
2023-01-07T04:37:24.939Z,-3.67
2023-01-07T04:40:12.130Z,-3.67
2023-01-07T04:42:59.668Z,-3.67
2023-01-07T04:45:47.868Z,-3.66
2023-01-07T04:48:36.688Z,-3.67
2023-01-07T04:51:24.188Z,-3.67
2023-01-07T04:54:11.236Z,-3.71
2023-01-07T04:56:38.643Z,-3.67
2023-01-07T04:59:05.964Z,-3.68
2023-01-07T05:01:32.976Z,-3.69
2023-01-07T05:04:00.295Z,-3.69
2023-01-07T05:06:28.097Z,-3.93
2023-01-07T05:08:55.141Z,-4.10
2023-01-07T05:11:22.695Z,-3.70
2023-01-07T05:13:52.664Z,-3.69
2023-01-07T05:16:22.211Z,-3.70
2023-01-07T05:18:50.405Z,-3.69
2023-01-07T05:21:18.057Z,-3.70
2023-01-07T05:23:45.439Z,-3.70
2023-01-07T05:26:12.670Z,-3.70
2023-01-07T05:28:39.875Z,-3.70
2023-01-07T05:31:07.009Z,-3.71
2023-01-07T05:33:34.425Z,-3.72
2023-01-07T05:36:02.559Z,-3.72
2023-01-07T05:38:29.548Z,-3.74
2023-01-07T05:40:57.705Z,-3.77
2023-01-07T05:43:26.587Z,-4.01
2023-01-07T05:45:53.577Z,-3.83
2023-01-07T05:48:20.800Z,-3.78
2023-01-07T05:50:47.777Z,-3.79
2023-01-07T05:53:14.805Z,-3.79
2023-01-07T05:55:41.895Z,-3.80
2023-01-07T05:58:09.132Z,-3.81
2023-01-07T06:00:36.761Z,-3.83
2023-01-07T06:03:04.992Z,-3.84
2023-01-07T06:05:32.105Z,-3.85
2023-01-07T06:07:59.269Z,-3.86
2023-01-07T06:10:26.337Z,-4.00
2023-01-07T06:12:53.222Z,-3.87
2023-01-07T06:15:20.386Z,-3.88
2023-01-07T06:17:47.565Z,-3.96
2023-01-07T06:20:17.339Z,-4.28
2023-01-07T06:22:44.212Z,-4.10
2023-01-07T06:25:12.848Z,-3.89
2023-01-07T06:27:40.856Z,-3.92
2023-01-07T06:30:09.859Z,-3.92
2023-01-07T06:32:41.632Z,-3.96
2023-01-07T06:35:10.522Z,-3.96
2023-01-07T06:37:37.778Z,-3.96
2023-01-07T06:40:05.344Z,-3.97
2023-01-07T06:42:32.281Z,-4.00
2023-01-07T06:44:59.249Z,-3.99
2023-01-07T06:47:26.371Z,-3.98
2023-01-07T06:49:53.268Z,-3.98
2023-01-07T06:52:20.348Z,-4.03
2023-01-07T06:54:48.701Z,-4.00
2023-01-07T06:57:15.693Z,-4.41
2023-01-07T06:59:42.676Z,-4.03
2023-01-07T07:02:22.575Z,-4.03
2023-01-07T07:04:51.459Z,-4.03
2023-01-07T07:07:18.995Z,-4.04
2023-01-07T07:09:47.232Z,-4.06
2023-01-07T07:12:14.537Z,-4.08
2023-01-07T07:14:41.537Z,-4.09
2023-01-07T07:17:08.913Z,-4.11
2023-01-07T07:19:35.956Z,-4.12
2023-01-07T07:22:04.710Z,-4.37
2023-01-07T07:24:31.888Z,-4.14
2023-01-07T07:27:18.684Z,-4.15
2023-01-07T07:30:05.853Z,-4.15
2023-01-07T07:32:52.850Z,-4.29
2023-01-07T07:35:39.822Z,-4.61
2023-01-07T07:38:26.718Z,-4.16
2023-01-07T07:41:13.733Z,-4.17
2023-01-07T07:44:00.645Z,-4.15
2023-01-07T07:46:47.688Z,-4.16
2023-01-07T07:49:34.620Z,-4.18
2023-01-07T07:52:21.597Z,-4.17
2023-01-07T07:55:20.399Z,-4.20
2023-01-07T07:58:14.504Z,-4.17
2023-01-07T08:01:01.611Z,-4.31
2023-01-07T08:03:48.747Z,-4.55
2023-01-07T08:06:35.666Z,-4.14
2023-01-07T08:09:22.692Z,-4.14
2023-01-07T08:12:10.321Z,-4.14
2023-01-07T08:14:57.267Z,-4.13
2023-01-07T08:17:44.226Z,-4.13
2023-01-07T08:20:31.975Z,-4.14
2023-01-07T08:23:23.267Z,-4.14
2023-01-07T08:26:10.195Z,-4.14
2023-01-07T08:28:58.324Z,-4.14
2023-01-07T08:31:45.450Z,-4.18
2023-01-07T08:34:32.570Z,-4.14
2023-01-07T08:37:19.422Z,-4.46
2023-01-07T08:40:06.559Z,-4.40
2023-01-07T08:42:53.674Z,-4.14
2023-01-07T08:45:40.848Z,-4.15
2023-01-07T08:48:27.932Z,-4.14
2023-01-07T08:51:15.238Z,-4.15
2023-01-07T08:54:02.273Z,-4.20
2023-01-07T08:56:49.358Z,-4.15
2023-01-07T08:59:36.366Z,-4.16
2023-01-07T09:02:23.277Z,-4.15
2023-01-07T09:05:10.249Z,-4.15
2023-01-07T09:07:57.383Z,-4.15
2023-01-07T09:10:44.993Z,-4.15
2023-01-07T09:13:31.835Z,-4.61
2023-01-07T09:16:19.051Z,-4.15
2023-01-07T09:19:05.976Z,-4.14
2023-01-07T09:21:53.050Z,-4.14
2023-01-07T09:24:39.937Z,-4.15
2023-01-07T09:27:27.006Z,-4.15
2023-01-07T09:30:14.755Z,-4.15
2023-01-07T09:33:05.272Z,-4.19
2023-01-07T09:35:52.116Z,-4.41
2023-01-07T09:38:39.047Z,-4.14
2023-01-07T09:41:49.206Z,-4.15
2023-01-07T09:44:45.314Z,-4.20
2023-01-07T09:47:37.274Z,-4.15
2023-01-07T09:50:34.431Z,-4.16
2023-01-07T09:53:25.977Z,-4.14
2023-01-07T09:56:15.177Z,-4.15
2023-01-07T09:59:05.999Z,-4.13
2023-01-07T10:02:14.297Z,-4.13
2023-01-07T10:05:05.852Z,-4.15
2023-01-07T10:08:29.456Z,-4.15
2023-01-07T10:11:27.922Z,-4.14
2023-01-07T10:14:24.015Z,-4.15
2023-01-07T10:17:17.660Z,-4.22
2023-01-07T10:20:35.201Z,-4.15
2023-01-07T10:23:32.206Z,-4.15
2023-01-07T10:26:21.397Z,-4.18
2023-01-07T10:29:17.904Z,-4.22
2023-01-07T10:32:05.917Z,-4.25
2023-01-07T10:35:01.136Z,-4.16
2023-01-07T10:37:55.150Z,-4.15
2023-01-07T10:41:02.171Z,-4.14
2023-01-07T10:44:14.962Z,-4.25
2023-01-07T10:47:23.190Z,-4.21
2023-01-07T10:50:37.249Z,-4.13
2023-01-07T10:53:51.410Z,-4.12
2023-01-07T10:56:55.174Z,-4.13
2023-01-07T10:59:43.115Z,-4.12
2023-01-07T11:02:37.373Z,-4.10
2023-01-07T11:05:24.609Z,-4.10
2023-01-07T11:08:12.490Z,-4.09
2023-01-07T11:10:59.735Z,-4.12
2023-01-07T11:13:50.795Z,-4.11
2023-01-07T11:16:43.590Z,-4.12
2023-01-07T11:19:31.894Z,-4.13
2023-01-07T11:22:18.748Z,-4.09
2023-01-07T11:25:05.892Z,-4.12
2023-01-07T11:27:54.510Z,-4.08
2023-01-07T11:30:50.812Z,-4.08
2023-01-07T11:34:02.958Z,-4.37
2023-01-07T11:37:02.453Z,-4.07
2023-01-07T11:39:52.861Z,-4.06
2023-01-07T11:42:38.678Z,-4.07
2023-01-07T11:45:31.848Z,-4.07
2023-01-07T11:48:20.964Z,-4.06
2023-01-07T11:51:13.933Z,-4.07
2023-01-07T11:54:06.577Z,-4.48
2023-01-07T11:56:55.381Z,-4.15
2023-01-07T11:59:51.519Z,-4.07
2023-01-07T12:02:45.031Z,-4.07
2023-01-07T12:05:52.557Z,-4.07
2023-01-07T12:08:42.310Z,-4.48
2023-01-07T12:11:31.766Z,-4.07
2023-01-07T12:14:26.221Z,-4.07
2023-01-07T12:17:15.357Z,-4.09
2023-01-07T12:20:27.190Z,-4.05
2023-01-07T12:23:46.752Z,-4.06
2023-01-07T12:26:41.154Z,-4.10
2023-01-07T12:29:26.983Z,-4.06
2023-01-07T12:32:24.503Z,-4.06
2023-01-07T12:35:16.028Z,-4.06
2023-01-07T12:37:57.513Z,-4.07
2023-01-07T12:40:39.275Z,-4.06
2023-01-07T12:43:19.841Z,-4.20
2023-01-07T12:45:56.310Z,-4.07
2023-01-07T12:48:38.726Z,-4.06
2023-01-07T12:51:22.836Z,-4.05
2023-01-07T12:54:00.153Z,-4.06
2023-01-07T12:56:59.088Z,-4.05
2023-01-07T12:59:53.543Z,-4.32
2023-01-07T13:02:48.909Z,-4.48
2023-01-07T13:05:41.557Z,-4.04
2023-01-07T13:08:52.059Z,-4.03
2023-01-07T13:11:43.370Z,-4.04
2023-01-07T13:14:54.237Z,-4.03
2023-01-07T13:17:51.670Z,-4.03
2023-01-07T13:21:04.506Z,-4.04
2023-01-07T13:24:19.119Z,-4.04
2023-01-07T13:27:26.740Z,-4.04
2023-01-07T13:30:35.521Z,-4.03
2023-01-07T13:33:59.357Z,-4.03
2023-01-07T13:36:58.281Z,-4.04
2023-01-07T13:40:09.734Z,-4.04
2023-01-07T13:43:20.323Z,-4.04
2023-01-07T13:46:18.224Z,-4.03
2023-01-07T13:49:09.470Z,-4.01
2023-01-07T13:51:58.223Z,-4.02
2023-01-07T13:55:13.037Z,-4.01
2023-01-07T13:58:01.389Z,-4.01
2023-01-07T14:01:20.257Z,-4.13
2023-01-07T14:04:09.044Z,-4.12
2023-01-07T14:06:40.046Z,-4.01
2023-01-07T14:09:06.978Z,-4.01
2023-01-07T14:11:53.808Z,-4.01
2023-01-07T14:14:55.478Z,-3.99
2023-01-07T14:18:07.203Z,-3.97
2023-01-07T14:21:10.918Z,-3.98
2023-01-07T14:24:34.398Z,-3.99
2023-01-07T14:27:33.124Z,-3.98
2023-01-07T14:30:35.267Z,-3.97
2023-01-07T14:33:25.070Z,-4.04
2023-01-07T14:36:16.690Z,-3.96
2023-01-07T14:39:03.679Z,-3.96
2023-01-07T14:41:50.649Z,-3.97
2023-01-07T14:44:48.845Z,-3.98
2023-01-07T14:48:04.742Z,-3.96
2023-01-07T14:51:05.519Z,-3.95
2023-01-07T14:54:04.288Z,-3.96
2023-01-07T14:57:16.019Z,-3.95
2023-01-07T15:00:25.607Z,-3.96
2023-01-07T15:03:40.824Z,-3.94
2023-01-07T15:06:44.722Z,-3.95
2023-01-07T15:09:38.766Z,-4.02
2023-01-07T15:12:31.984Z,-3.94
2023-01-07T15:15:38.245Z,-3.94
2023-01-07T15:18:29.599Z,-3.93
2023-01-07T15:21:19.139Z,-3.92
2023-01-07T15:24:14.790Z,-3.92
2023-01-07T15:27:10.798Z,-3.92
2023-01-07T15:30:14.193Z,-3.91
2023-01-07T15:33:26.401Z,-4.03
2023-01-07T15:36:13.740Z,-3.91
2023-01-07T15:39:07.343Z,-3.89
2023-01-07T15:42:00.002Z,-3.91
2023-01-07T15:44:52.323Z,-3.89
2023-01-07T15:47:59.970Z,-3.91
2023-01-07T15:50:51.882Z,-3.90
2023-01-07T15:53:45.160Z,-3.91
2023-01-07T15:56:35.570Z,-3.90
2023-01-07T15:59:27.683Z,-4.03
2023-01-07T16:02:20.345Z,-3.90
2023-01-07T16:05:10.419Z,-3.89
2023-01-07T16:08:11.627Z,-3.91
2023-01-07T16:10:58.428Z,-4.05
2023-01-07T16:13:45.594Z,-4.09
2023-01-07T16:16:36.383Z,-3.90
2023-01-07T16:19:23.896Z,-3.90
2023-01-07T16:22:15.222Z,-3.90
2023-01-07T16:25:10.797Z,-3.90
2023-01-07T16:27:59.248Z,-3.93
2023-01-07T16:30:46.751Z,-3.90
2023-01-07T16:33:41.029Z,-3.91
2023-01-07T16:36:37.514Z,-3.89
2023-01-07T16:39:31.608Z,-3.90
2023-01-07T16:42:17.494Z,-3.92
2023-01-07T16:45:04.422Z,-3.89
2023-01-07T16:47:53.751Z,-3.88
2023-01-07T16:50:40.839Z,-3.86
2023-01-07T16:54:00.038Z,-3.87
2023-01-07T16:56:47.049Z,-3.86
2023-01-07T16:59:35.554Z,-3.86
2023-01-07T17:02:33.008Z,-3.85
2023-01-07T17:05:37.066Z,-3.85
2023-01-07T17:08:36.436Z,-3.84
2023-01-07T17:11:37.525Z,-3.84
2023-01-07T17:14:31.976Z,-3.89
2023-01-07T17:17:25.949Z,-3.85
2023-01-07T17:20:32.715Z,-3.86
2023-01-07T17:23:19.617Z,-3.82
2023-01-07T17:26:06.565Z,-3.80
2023-01-07T17:29:05.695Z,-3.84
2023-01-07T17:31:52.751Z,-3.77
2023-01-07T17:34:39.619Z,-3.80
2023-01-07T17:37:32.861Z,-3.75
2023-01-07T17:40:19.645Z,-3.75
2023-01-07T17:43:07.539Z,-3.74
2023-01-07T17:45:54.566Z,-3.79
2023-01-07T17:48:41.653Z,-3.71
2023-01-07T17:51:31.350Z,-3.72
2023-01-07T17:54:18.933Z,-3.69
2023-01-07T17:57:05.880Z,-3.71
2023-01-07T17:59:52.840Z,-3.68
2023-01-07T18:02:49.228Z,-3.75
2023-01-07T18:05:42.322Z,-3.65
2023-01-07T18:08:29.940Z,-3.89
2023-01-07T18:11:15.367Z,-3.63
2023-01-07T18:14:02.412Z,-3.73
2023-01-07T18:16:49.842Z,-3.73
2023-01-07T18:19:36.862Z,-3.59
2023-01-07T18:22:24.871Z,-3.61
2023-01-07T18:25:11.784Z,-3.87
2023-01-07T18:27:58.926Z,-3.62
2023-01-07T18:30:45.857Z,-3.61
2023-01-07T18:33:34.627Z,-3.55
2023-01-07T18:36:22.479Z,-3.50
2023-01-07T18:39:09.389Z,-3.56
2023-01-07T18:41:59.657Z,-3.48
2023-01-07T18:44:46.802Z,-3.51
2023-01-07T18:47:33.675Z,-3.46
2023-01-07T18:50:20.793Z,-3.53
2023-01-07T18:53:07.747Z,-3.46
2023-01-07T18:55:54.677Z,-3.45
2023-01-07T18:58:43.970Z,-3.44
2023-01-07T19:01:31.652Z,-3.42
2023-01-07T19:04:18.662Z,-3.40
2023-01-07T19:07:05.771Z,-3.39
2023-01-07T19:09:52.697Z,-3.39
2023-01-07T19:12:39.849Z,-3.38
2023-01-07T19:15:27.273Z,-3.37
2023-01-07T19:18:14.424Z,-3.35
2023-01-07T19:21:01.320Z,-3.45
2023-01-07T19:23:48.420Z,-3.34
2023-01-07T19:26:35.355Z,-3.32
2023-01-07T19:29:22.422Z,-3.31
2023-01-07T19:32:09.523Z,-3.34
2023-01-07T19:34:56.529Z,-3.28
2023-01-07T19:37:43.423Z,-3.29
2023-01-07T19:40:30.969Z,-3.26
2023-01-07T19:43:17.802Z,-3.24
2023-01-07T19:46:13.732Z,-3.22
2023-01-07T19:49:01.518Z,-3.21
2023-01-07T19:51:49.404Z,-3.18
2023-01-07T19:54:37.623Z,-3.17
2023-01-07T19:57:24.854Z,-3.28
2023-01-07T20:00:11.785Z,-3.20
2023-01-07T20:02:58.779Z,-3.15
2023-01-07T20:05:45.623Z,-3.14
2023-01-07T20:08:32.822Z,-3.18
2023-01-07T20:11:20.270Z,-3.11
2023-01-07T20:14:08.461Z,-3.08
2023-01-07T20:16:55.530Z,-3.08
2023-01-07T20:19:42.582Z,-3.06
2023-01-07T20:22:29.512Z,-3.06
2023-01-07T20:25:16.461Z,-3.04
2023-01-07T20:28:03.454Z,-3.03
2023-01-07T20:30:50.557Z,-3.02
2023-01-07T20:33:37.374Z,-3.00
2023-01-07T20:36:27.478Z,-3.00
2023-01-07T20:39:14.726Z,-2.98
2023-01-07T20:42:01.630Z,-2.97
2023-01-07T20:44:48.584Z,-2.96
2023-01-07T20:47:35.516Z,-2.95
2023-01-07T20:50:22.313Z,-2.95
2023-01-07T20:53:09.482Z,-2.93
2023-01-07T20:55:56.633Z,-3.03
2023-01-07T20:58:44.059Z,-2.92
2023-01-07T21:01:33.212Z,-2.92
2023-01-07T21:04:20.410Z,-2.91
2023-01-07T21:07:07.394Z,-2.91
2023-01-07T21:09:54.541Z,-3.07
2023-01-07T21:12:41.487Z,-2.91
2023-01-07T21:15:29.803Z,-2.90
2023-01-07T21:18:16.712Z,-2.90
2023-01-07T21:21:03.969Z,-2.90
2023-01-07T21:23:50.916Z,-2.90
2023-01-07T21:26:38.842Z,-2.91
2023-01-07T21:29:25.681Z,-2.90
2023-01-07T21:32:12.827Z,-2.93
2023-01-07T21:34:59.954Z,-2.89
2023-01-07T21:37:47.666Z,-2.89
2023-01-07T21:40:34.638Z,-2.90
2023-01-07T21:43:21.825Z,-2.92
2023-01-07T21:46:08.821Z,-2.90
2023-01-07T21:48:59.384Z,-2.90
2023-01-07T21:51:47.455Z,-2.89
2023-01-07T21:54:34.557Z,-2.90
2023-01-07T21:57:21.432Z,-2.91
2023-01-07T22:00:09.268Z,-2.90
2023-01-07T22:02:59.063Z,-2.93
2023-01-07T22:05:46.078Z,-2.91
2023-01-07T22:08:32.934Z,-2.90
2023-01-07T22:11:20.167Z,-2.90
2023-01-07T22:14:15.021Z,-2.90
2023-01-07T22:17:02.589Z,-2.97
2023-01-07T22:19:49.482Z,-2.90
2023-01-07T22:22:36.568Z,-2.92
2023-01-07T22:25:23.462Z,-2.91
2023-01-07T22:28:10.449Z,-2.94
2023-01-07T22:31:00.568Z,-2.91
2023-01-07T22:33:47.641Z,-2.90
2023-01-07T22:36:38.519Z,-2.90
2023-01-07T22:39:31.314Z,-2.89
2023-01-07T22:42:22.491Z,-2.89
2023-01-07T22:45:15.301Z,-2.89
2023-01-07T22:48:05.502Z,-2.89
2023-01-07T22:50:52.451Z,-2.89
2023-01-07T22:53:39.577Z,-3.05
2023-01-07T22:56:27.249Z,-2.90
2023-01-07T22:59:14.123Z,-3.04
2023-01-07T23:02:01.258Z,-2.87
2023-01-07T23:04:48.302Z,-2.88
2023-01-07T23:07:35.254Z,-2.87
2023-01-07T23:10:22.097Z,-2.87
2023-01-07T23:13:09.270Z,-2.86
2023-01-07T23:15:58.193Z,-2.86
2023-01-07T23:18:45.201Z,-2.86
2023-01-07T23:21:32.051Z,-2.87
2023-01-07T23:24:19.667Z,-2.86
2023-01-07T23:27:08.821Z,-2.88
2023-01-07T23:29:55.810Z,-2.86
2023-01-07T23:32:42.586Z,-2.87
2023-01-07T23:35:29.825Z,-2.95
2023-01-07T23:38:16.893Z,-2.90
2023-01-07T23:41:03.821Z,-2.85
2023-01-07T23:43:51.161Z,-2.84
2023-01-07T23:46:38.169Z,-2.88
2023-01-07T23:49:25.120Z,-2.85
2023-01-07T23:52:12.450Z,-2.95
2023-01-07T23:54:59.365Z,-3.01
2023-01-07T23:57:48.041Z,-2.92
